Flight Track Log - Related Links

Times and Time Zones

All times are in EDT time to prevent confusion due to time zone crossing. See the AMF1918 flight status page for this flight to view local times or setup timezone preferences in your user account.

Time Position Orientation Groundspeed Altitude Reporting Facility
EDT Latitude Longitude Course Direction KTS MPH feet Rate Location/Type
Wed 09:11:16 AM 45.5831 -122.6178 184° South 110 127 600  Level Seattle Center
Wed 09:12:10 AM 45.5531 -122.6208 184° South 124 143 2,200 1,461 Climbing Seattle Center
Wed 09:13:11 AM 45.5192 -122.6131 171° South 135 155 3,400 1,075 Climbing Seattle Center
Wed 09:14:24 AM 45.4814 -122.5544 133° Southeast 176 203 4,600 1,036 Climbing Seattle Center
Wed 09:15:01 AM 45.4642 -122.5217 127° Southeast 171 197 5,300 1,000 Climbing Seattle Center
Wed 09:15:24 AM 45.4511 -122.5022 134° Southeast 177 204 5,600 800 Climbing Seattle Center
Wed 09:16:01 AM 45.4333 -122.4758 134° Southeast 172 198 6,100 918 Climbing Seattle Center
Wed 09:17:02 AM 45.3933 -122.4275 140° Southeast 183 211 7,100 843 Climbing Seattle Center
Wed 09:18:02 AM 45.3525 -122.3847 144° Southeast 181 208 7,800 744 Climbing Seattle Center
Wed 09:19:03 AM 45.3178 -122.3367 136° Southeast 176 203 8,600 793 Climbing Seattle Center
Wed 09:20:03 AM 45.2761 -122.2881 141° Southeast 189 217 9,400 496 Climbing Seattle Center
Wed 09:21:04 AM 45.2319 -122.2417 144° Southeast 195 224 9,600 49 Climbing Seattle Center
Wed 09:22:05 AM 45.1861 -122.1933 143° Southeast 202 232 9,500  Descending Seattle Center
Wed 09:23:05 AM 45.1394 -122.1497 147° Southeast 201 231 9,600 50 Climbing Seattle Center
Wed 09:24:06 AM 45.0969 -122.0997 140° Southeast 199 229 9,600 -50 Level Seattle Center
Wed 09:25:06 AM 45.0508 -122.0544 145° Southeast 201 231 9,500 -50 Descending Seattle Center
Wed 09:26:07 AM 45.0025 -122.0108 147° Southeast 204 235 9,500 49 Level Seattle Center
Wed 09:27:08 AM 44.9586 -121.9647 143° Southeast 200 230 9,600  Climbing Seattle Center
Wed 09:28:08 AM 44.9100 -121.9128 143° Southeast 200 230 9,500  Descending Seattle Center
Wed 09:29:09 AM 44.8644 -121.8667 144° Southeast 201 231 9,600 50 Climbing Seattle Center
Wed 09:30:09 AM 44.8197 -121.8258 147° Southeast 196 226 9,600  Level Seattle Center
Wed 09:31:10 AM 44.7717 -121.7869 150° Southeast 199 229 9,600  Level Seattle Center
Wed 09:32:11 AM 44.7211 -121.7533 155° Southeast 201 231 9,600  Level Seattle Center
Wed 09:33:11 AM 44.6728 -121.7153 151° Southeast 200 230 9,600 -50 Level Seattle Center
Wed 09:34:12 AM 44.6261 -121.6703 146° Southeast 204 235 9,500 -246 Descending Seattle Center
Wed 09:35:13 AM 44.5775 -121.6272 148° Southeast 206 237 9,100 -541 Descending Seattle Center
Wed 09:36:14 AM 44.5258 -121.5789 146° Southeast 221 254 8,400 -744 Descending Seattle Center
Wed 09:37:14 AM 44.4808 -121.5114 133° Southeast 228 262 7,600 -793 Descending Seattle Center
Wed 09:38:15 AM 44.4333 -121.4533 139° Southeast 228 262 6,800 -934 Descending Seattle Center
Wed 09:39:16 AM 44.3900 -121.3944 136° Southeast 221 254 5,700 -694 Descending Seattle Center
Wed 09:40:16 AM 44.3506 -121.3336 132° Southeast 214 246 5,400 -298 Descending Seattle Center
Wed 09:41:17 AM 44.3128 -121.2811 135° Southeast 202 232 5,100 -541 Descending Seattle Center
Wed 09:42:18 AM 44.2856 -121.2206 122° Southeast 168 193 4,300 -787 Descending Seattle Center
Wed 09:43:19 AM 44.2667 -121.1783 122° Southeast 147 169 3,500 -595 Descending Seattle Center
Wed 09:44:19 AM 44.2539 -121.1519 124° Southeast 108 124 3,100 -198 Descending Seattle Center
Wed 09:45:20 AM 44.2567 -121.1542 330° Northwest 49 56 3,100  Level Seattle Center

Login

Don't have an account? Register now (free) for customized features, flight alerts, and more!